Time;durP1;ratioP1;P1;durP2;ratioP2;P2;SDS_P1;SDS_P2;PMS_P1;PMS_P2;Temp;Humidity;BMP_temperature;BMP_pressure;BME280_temperature;BME280_humidity;BME280_pressure;Samples;Min_cycle;Max_cycle;Signal;HPM_P1;HPM_P2
2021/03/30 00:00:00;;;;;;;7.43;3.50;;;15.00;65.30;14.90;100910.00;;;;337996;28;88269;-92
2021/03/30 00:00:12;;;;;;;9.15;4.13;;;15.00;65.10;14.90;100914.00;;;;339757;28;82366;-92
2021/03/30 00:00:23;;;;;;;9.27;4.07;;;15.00;64.90;14.90;100907.00;;;;336517;28;92644;-93
2021/03/30 00:00:35;;;;;;;8.27;3.95;;;15.00;64.80;14.90;100909.00;;;;339684;28;84513;-92
2021/03/30 00:00:46;;;;;;;7.35;3.67;;;15.00;64.70;14.90;100918.00;;;;337237;28;92192;-92
2021/03/30 00:00:58;;;;;;;8.65;3.78;;;15.00;65.10;14.90;100915.00;;;;337451;28;83517;-90
2021/03/30 00:01:09;;;;;;;9.25;3.58;;;15.00;65.20;14.80;100914.00;;;;338046;28;89168;-91
2021/03/30 00:01:21;;;;;;;9.18;3.50;;;15.00;65.30;14.90;100911.00;;;;342338;28;84150;-92
2021/03/30 00:01:32;;;;;;;7.38;3.30;;;14.90;65.00;15.00;100917.00;;;;340235;28;91799;-93
2021/03/30 00:01:44;;;;;;;7.82;3.75;;;14.90;65.00;15.00;100912.00;;;;342699;28;83945;-92
2021/03/30 00:01:56;;;;;;;7.22;3.60;;;15.00;65.60;15.00;100916.00;;;;339010;28;90327;-92
2021/03/30 00:02:08;;;;;;;6.43;3.55;;;15.00;64.90;15.10;100913.00;;;;338047;28;83494;-92
2021/03/30 00:02:19;;;;;;;5.63;3.42;;;15.00;65.00;15.10;100909.00;;;;340233;28;89029;-92
2021/03/30 00:02:31;;;;;;;6.35;3.60;;;15.00;65.00;14.90;100911.00;;;;337583;28;84241;-92
2021/03/30 00:02:42;;;;;;;6.53;3.70;;;15.00;65.50;14.90;100914.00;;;;338736;28;89368;-93
2021/03/30 00:02:54;;;;;;;7.00;3.42;;;15.00;65.60;14.90;100913.00;;;;337803;28;82627;-91
2021/03/30 00:03:06;;;;;;;6.60;3.10;;;14.90;65.40;15.10;100917.00;;;;339812;28;90531;-92
2021/03/30 00:03:17;;;;;;;6.90;3.03;;;15.00;65.10;15.00;100920.00;;;;339130;28;82408;-91
2021/03/30 00:03:28;;;;;;;7.57;3.85;;;15.00;65.20;15.00;100917.00;;;;341216;28;90008;-91
2021/03/30 00:03:40;;;;;;;6.78;3.80;;;15.00;65.20;15.10;100910.00;;;;341147;28;83442;-93
2021/03/30 00:03:51;;;;;;;7.00;3.50;;;15.00;65.00;15.10;100919.00;;;;339015;28;89685;-92
2021/03/30 00:04:03;;;;;;;6.70;2.83;;;15.00;64.90;15.20;100926.00;;;;340191;28;83908;-93
2021/03/30 00:04:14;;;;;;;7.00;2.88;;;15.00;65.00;15.10;100923.00;;;;339473;28;88201;-92
2021/03/30 00:04:25;;;;;;;5.53;2.78;;;15.00;65.20;15.10;100914.00;;;;338790;28;83868;-91
2021/03/30 00:04:37;;;;;;;6.07;3.03;;;15.00;65.10;15.10;100915.00;;;;338678;28;91808;-92
2021/03/30 00:04:50;;;;;;;6.50;3.47;;;15.00;64.80;15.00;100908.00;;;;337675;28;82602;-91
2021/03/30 00:05:02;;;;;;;6.07;3.40;;;15.00;64.90;15.00;100915.00;;;;338643;28;90631;-92
2021/03/30 00:05:13;;;;;;;5.18;3.25;;;15.00;65.00;15.00;100913.00;;;;339071;28;84541;-92
2021/03/30 00:05:25;;;;;;;5.68;3.35;;;15.00;65.50;14.90;100921.00;;;;339982;28;92247;-90
2021/03/30 00:05:36;;;;;;;6.10;3.30;;;15.00;65.60;14.90;100924.00;;;;337647;28;84611;-91
2021/03/30 00:05:48;;;;;;;6.75;3.45;;;14.90;65.70;14.70;100918.00;;;;338692;28;91481;-92
2021/03/30 00:06:00;;;;;;;8.48;3.88;;;14.90;65.70;14.70;100915.00;;;;337827;28;82421;-92
2021/03/30 00:06:11;;;;;;;8.20;3.70;;;14.90;65.50;14.60;100921.00;;;;336030;28;91005;-92
2021/03/30 00:06:22;;;;;;;7.57;3.35;;;14.90;65.70;14.60;100915.00;;;;336333;28;82581;-93
2021/03/30 00:06:34;;;;;;;5.97;3.25;;;14.90;65.70;14.60;100912.00;;;;335910;28;91327;-92
2021/03/30 00:06:45;;;;;;;5.90;3.90;;;14.90;65.70;14.70;100913.00;;;;338534;28;82641;-92
2021/03/30 00:06:57;;;;;;;6.78;4.00;;;14.80;65.40;14.70;100922.00;;;;338424;28;91688;-92
2021/03/30 00:07:08;;;;;;;8.07;4.00;;;14.80;65.40;14.80;100917.00;;;;341638;28;82476;-91
2021/03/30 00:07:19;;;;;;;7.22;3.67;;;14.80;65.20;14.70;100913.00;;;;338622;28;91975;-90
2021/03/30 00:07:31;;;;;;;6.32;3.28;;;14.80;65.30;14.80;100915.00;;;;342409;28;83985;-91
2021/03/30 00:07:42;;;;;;;6.03;3.00;;;14.80;65.30;14.70;100913.00;;;;342346;28;90095;-93
2021/03/30 00:07:54;;;;;;;6.30;3.40;;;14.80;65.90;14.80;100911.00;;;;339038;28;84445;-93
2021/03/30 00:08:05;;;;;;;6.50;3.70;;;14.80;65.20;14.70;100913.00;;;;341435;28;89356;-92
2021/03/30 00:08:17;;;;;;;6.20;3.47;;;14.80;65.50;14.80;100916.00;;;;340266;28;84005;-92
2021/03/30 00:08:28;;;;;;;6.80;3.58;;;14.80;65.40;14.80;100911.00;;;;341332;28;92187;-92
2021/03/30 00:08:40;;;;;;;6.90;3.68;;;14.80;65.30;14.70;100916.00;;;;338881;28;83760;-92
2021/03/30 00:08:51;;;;;;;8.95;3.50;;;14.80;65.40;14.70;100915.00;;;;341141;28;91918;-92
2021/03/30 00:09:03;;;;;;;7.60;3.22;;;14.80;65.60;14.70;100914.00;;;;340279;28;83638;-92
2021/03/30 00:09:14;;;;;;;6.07;3.03;;;14.80;65.70;14.70;100905.00;;;;341413;28;91528;-93
2021/03/30 00:09:26;;;;;;;5.70;3.00;;;14.80;65.50;14.70;100917.00;;;;339055;28;85150;-91
2021/03/30 00:09:37;;;;;;;5.68;2.97;;;14.80;65.40;14.80;100913.00;;;;341083;28;89302;-91
2021/03/30 00:09:49;;;;;;;6.35;3.17;;;14.80;65.30;14.90;100914.00;;;;338824;28;83448;-93
2021/03/30 00:10:00;;;;;;;6.03;3.03;;;14.80;65.30;14.90;100909.00;;;;340964;28;90390;-92
2021/03/30 00:10:19;;;;;;;5.10;2.90;;;14.80;65.40;15.00;100909.00;;;;338097;28;84632;-92
2021/03/30 00:10:39;;;;;;;5.80;3.53;;;14.80;65.40;15.00;100908.00;;;;341315;28;90868;-92
2021/03/30 00:10:51;;;;;;;6.60;3.33;;;14.80;65.70;15.00;100912.00;;;;339023;28;85585;-93
2021/03/30 00:11:02;;;;;;;7.13;3.45;;;14.80;65.50;14.90;100917.00;;;;339902;28;90631;-93
2021/03/30 00:11:14;;;;;;;7.15;3.80;;;14.80;65.50;14.90;100913.00;;;;340467;28;83758;-92
2021/03/30 00:11:25;;;;;;;6.90;3.72;;;14.80;65.60;14.90;100915.00;;;;336076;28;92279;-93
2021/03/30 00:11:37;;;;;;;6.53;3.65;;;14.80;65.50;14.90;100914.00;;;;338985;28;84110;-92
2021/03/30 00:11:49;;;;;;;7.07;3.65;;;14.80;65.30;14.90;100910.00;;;;337332;28;90938;-92
2021/03/30 00:12:01;;;;;;;6.07;3.67;;;14.80;65.50;14.80;100908.00;;;;340387;28;84637;-92
2021/03/30 00:12:13;;;;;;;4.93;3.47;;;14.80;66.20;14.60;100914.00;;;;337343;28;91517;-93
2021/03/30 00:12:24;;;;;;;4.88;3.06;;;14.80;66.40;14.70;100912.00;;;;341628;28;84242;-92
2021/03/30 00:12:36;;;;;;;7.00;3.47;;;14.80;66.10;14.70;100916.00;;;;338705;28;90710;-92
2021/03/30 00:12:49;;;;;;;7.05;3.55;;;14.80;66.20;14.90;100911.00;;;;340115;28;84640;-92
2021/03/30 00:13:01;;;;;;;8.10;3.80;;;14.80;65.80;14.80;100910.00;;;;338451;28;90391;-93
2021/03/30 00:13:12;;;;;;;7.00;3.70;;;14.80;65.80;14.80;100909.00;;;;342118;28;83549;-92
2021/03/30 00:13:24;;;;;;;7.60;3.60;;;14.80;65.80;14.80;100911.00;;;;340025;28;91864;-92
2021/03/30 00:13:35;;;;;;;6.18;3.33;;;14.80;65.60;14.70;100916.00;;;;337472;28;85132;-91
2021/03/30 00:13:47;;;;;;;5.82;3.15;;;14.80;65.80;14.80;100912.00;;;;340195;28;89807;-91
2021/03/30 00:13:59;;;;;;;5.30;3.03;;;14.80;65.70;14.80;100909.00;;;;340323;28;84733;-92
2021/03/30 00:14:10;;;;;;;7.82;3.25;;;14.80;65.60;14.90;100910.00;;;;338685;28;91363;-92
2021/03/30 00:14:21;;;;;;;8.60;3.47;;;14.80;65.60;14.80;100912.00;;;;338975;28;84432;-93
2021/03/30 00:14:33;;;;;;;7.95;3.65;;;14.80;65.80;14.80;100910.00;;;;337238;28;90012;-92
2021/03/30 00:14:44;;;;;;;6.60;3.47;;;14.80;65.70;14.80;100909.00;;;;340480;28;83339;-92
2021/03/30 00:14:56;;;;;;;6.32;3.22;;;14.80;65.70;14.90;100910.00;;;;338594;28;92915;-91
2021/03/30 00:15:09;;;;;;;5.72;3.47;;;14.80;65.80;14.80;100912.00;;;;340448;28;83495;-93
2021/03/30 00:15:20;;;;;;;5.47;3.17;;;14.80;65.70;14.80;100913.00;;;;338667;28;91789;-93
2021/03/30 00:15:32;;;;;;;6.68;3.55;;;14.80;66.00;14.90;100911.00;;;;341664;28;83562;-92
2021/03/30 00:15:43;;;;;;;7.90;3.78;;;14.80;65.90;14.90;100915.00;;;;339552;28;91020;-92
2021/03/30 00:15:56;;;;;;;6.25;3.28;;;14.80;65.80;14.90;100919.00;;;;338923;28;83513;-92
2021/03/30 00:16:08;;;;;;;5.38;3.05;;;14.80;66.00;14.90;100910.00;;;;335747;28;92279;-92
2021/03/30 00:16:20;;;;;;;5.65;3.03;;;14.80;65.90;14.90;100919.00;;;;338886;28;83665;-92
2021/03/30 00:16:31;;;;;;;7.28;3.50;;;14.70;65.80;14.80;100916.00;;;;338809;28;90642;-92
2021/03/30 00:16:43;;;;;;;7.43;3.53;;;14.80;65.80;14.80;100915.00;;;;339640;28;85225;-92
2021/03/30 00:16:55;;;;;;;5.50;3.10;;;14.70;65.70;14.90;100915.00;;;;338582;28;91553;-92
2021/03/30 00:17:08;;;;;;;3.90;2.95;;;14.80;65.60;14.90;100914.00;;;;342953;28;83587;-93
2021/03/30 00:17:19;;;;;;;4.88;3.30;;;14.70;65.50;14.90;100915.00;;;;338806;28;88675;-92
2021/03/30 00:17:30;;;;;;;6.30;3.50;;;14.80;65.70;14.90;100909.00;;;;341521;28;83436;-91
2021/03/30 00:17:43;;;;;;;6.85;3.50;;;14.80;65.70;14.70;100911.00;;;;337057;28;91255;-93
2021/03/30 00:17:55;;;;;;;5.80;3.42;;;14.80;65.90;14.60;100919.00;;;;340105;28;84733;-93
2021/03/30 00:18:07;;;;;;;5.60;3.10;;;14.80;66.20;14.60;100916.00;;;;337278;28;91149;-92
2021/03/30 00:18:19;;;;;;;6.07;3.25;;;14.70;66.30;14.80;100919.00;;;;341615;28;83779;-92
2021/03/30 00:18:30;;;;;;;6.97;3.45;;;14.70;66.10;14.90;100912.00;;;;340069;28;89486;-92
2021/03/30 00:18:42;;;;;;;6.85;3.50;;;14.70;65.90;15.00;100908.00;;;;339292;28;83572;-92
2021/03/30 00:18:53;;;;;;;6.68;3.08;;;14.80;66.20;15.00;100916.00;;;;338629;28;90311;-93
2021/03/30 00:19:05;;;;;;;8.32;3.30;;;14.80;66.20;15.00;100911.00;;;;340220;28;84680;-93
2021/03/30 00:19:16;;;;;;;7.80;3.55;;;14.80;66.00;15.00;100901.00;;;;342619;28;91728;-91
2021/03/30 00:19:27;;;;;;;6.65;3.13;;;14.80;66.00;14.90;100913.00;;;;340385;28;83460;-92
2021/03/30 00:19:39;;;;;;;5.43;3.25;;;14.80;66.00;14.90;100909.00;;;;341253;28;90767;-93
2021/03/30 00:19:50;;;;;;;5.20;2.80;;;14.80;65.90;14.90;100910.00;;;;337436;28;83615;-91
2021/03/30 00:20:13;;;;;;;5.13;2.72;;;14.80;65.70;14.90;100911.00;;;;341367;28;91708;-92
2021/03/30 00:20:25;;;;;;;7.03;3.20;;;14.80;65.70;14.90;100905.00;;;;338881;28;83768;-91
2021/03/30 00:20:36;;;;;;;7.80;3.45;;;14.80;65.60;14.90;100913.00;;;;342826;28;90980;-93
2021/03/30 00:20:47;;;;;;;6.65;3.42;;;14.80;65.60;15.00;100910.00;;;;340297;28;84780;-92
2021/03/30 00:20:59;;;;;;;4.85;3.08;;;14.80;65.50;15.00;100911.00;;;;338549;28;91626;-93
2021/03/30 00:21:10;;;;;;;5.03;3.05;;;14.80;65.80;14.90;100910.00;;;;340431;28;82568;-92
2021/03/30 00:21:22;;;;;;;5.63;3.25;;;14.80;66.00;14.80;100911.00;;;;340038;28;91757;-93
2021/03/30 00:21:33;;;;;;;7.93;3.67;;;14.80;66.00;14.90;100913.00;;;;337690;28;83426;-93
2021/03/30 00:21:44;;;;;;;8.88;3.88;;;14.80;65.80;14.90;100913.00;;;;339629;28;91832;-91
2021/03/30 00:21:56;;;;;;;8.57;3.70;;;14.80;65.80;14.80;100910.00;;;;336272;28;82983;-91
2021/03/30 00:22:07;;;;;;;8.75;3.60;;;14.80;66.20;14.70;100908.00;;;;337465;28;87894;-92
2021/03/30 00:22:19;;;;;;;8.07;3.70;;;14.80;66.20;14.70;100906.00;;;;338911;28;84673;-94
2021/03/30 00:22:31;;;;;;;7.60;3.67;;;14.80;66.10;14.70;100909.00;;;;338700;28;89374;-93
2021/03/30 00:22:42;;;;;;;7.45;3.85;;;14.70;65.90;14.80;100908.00;;;;341241;28;84578;-91
2021/03/30 00:22:54;;;;;;;6.47;3.55;;;14.80;65.70;14.80;100913.00;;;;339824;28;92570;-91
2021/03/30 00:23:05;;;;;;;6.22;3.72;;;14.80;66.40;14.90;100910.00;;;;339002;28;85160;-92
2021/03/30 00:23:16;;;;;;;6.25;3.20;;;14.80;65.80;14.90;100908.00;;;;339924;28;88279;-92
2021/03/30 00:23:28;;;;;;;7.10;3.05;;;14.80;66.10;14.80;100909.00;;;;340251;28;82495;-91
2021/03/30 00:23:39;;;;;;;8.55;3.22;;;14.80;66.00;14.90;100909.00;;;;338465;28;89636;-92
2021/03/30 00:23:53;;;;;;;7.93;3.72;;;14.80;66.00;14.90;100905.00;;;;339191;28;83341;-93
2021/03/30 00:24:05;;;;;;;6.40;3.88;;;14.80;65.80;15.00;100916.00;;;;336117;28;89342;-93
2021/03/30 00:24:16;;;;;;;5.72;3.78;;;14.80;65.80;15.00;100912.00;;;;338958;28;83693;-92
2021/03/30 00:24:28;;;;;;;6.97;3.63;;;14.80;66.00;15.00;100907.00;;;;338733;28;88096;-92
2021/03/30 00:24:39;;;;;;;6.90;3.42;;;14.80;65.90;15.00;100909.00;;;;337791;28;83344;-92
2021/03/30 00:24:51;;;;;;;6.63;3.50;;;14.80;65.90;15.00;100914.00;;;;339325;28;92137;-92
2021/03/30 00:25:07;;;;;;;6.95;3.40;;;14.80;66.10;14.90;100915.00;;;;336397;28;83454;-93
2021/03/30 00:25:19;;;;;;;7.03;3.28;;;14.80;66.00;14.90;100907.00;;;;341323;28;89744;-92
2021/03/30 00:25:30;;;;;;;6.30;3.67;;;14.80;66.00;14.90;100912.00;;;;340319;28;83461;-92
2021/03/30 00:25:42;;;;;;;6.18;3.63;;;14.80;65.90;14.90;100908.00;;;;338928;28;92817;-91
2021/03/30 00:25:53;;;;;;;4.93;3.25;;;14.80;65.80;14.90;100908.00;;;;340338;28;85246;-92
2021/03/30 00:26:05;;;;;;;5.78;3.45;;;14.80;65.90;14.80;100917.00;;;;341249;28;91889;-93
2021/03/30 00:26:16;;;;;;;5.72;3.63;;;14.80;66.00;14.80;100900.00;;;;338804;28;85165;-93
2021/03/30 00:26:34;;;;;;;6.18;3.78;;;14.80;66.10;14.90;100904.00;;;;342690;28;93079;-92
2021/03/30 00:26:45;;;;;;;7.07;3.88;;;14.80;65.90;14.90;100916.00;;;;339037;28;85283;-93
2021/03/30 00:26:57;;;;;;;6.65;3.53;;;14.80;66.00;14.90;100912.00;;;;338577;28;92055;-92
2021/03/30 00:27:08;;;;;;;6.82;3.55;;;14.80;66.10;14.90;100923.00;;;;340541;28;82487;-93
2021/03/30 00:27:19;;;;;;;6.45;3.33;;;14.70;66.00;14.90;100907.00;;;;341318;28;92846;-92
2021/03/30 00:27:31;;;;;;;6.60;3.70;;;14.80;66.20;14.90;100916.00;;;;338851;28;82461;-92
2021/03/30 00:27:42;;;;;;;7.45;3.58;;;14.80;66.40;14.90;100919.00;;;;338815;28;91074;-92
2021/03/30 00:27:53;;;;;;;9.00;3.58;;;14.80;66.30;14.80;100913.00;;;;338688;28;85130;-92
2021/03/30 00:28:05;;;;;;;8.73;3.60;;;14.80;66.30;14.70;100909.00;;;;339777;28;91872;-93
2021/03/30 00:28:16;;;;;;;9.15;3.40;;;14.80;66.60;14.60;100915.00;;;;341176;28;83920;-91
2021/03/30 00:28:28;;;;;;;7.00;3.08;;;14.80;66.50;14.50;100910.00;;;;337379;28;89049;-92
2021/03/30 00:28:39;;;;;;;5.38;2.70;;;14.70;66.40;14.50;100911.00;;;;340489;28;82371;-93
2021/03/30 00:28:50;;;;;;;4.75;2.70;;;14.70;66.50;14.40;100911.00;;;;336066;28;89059;-92
2021/03/30 00:29:05;;;;;;;5.28;3.10;;;14.70;66.50;14.60;100907.00;;;;335993;28;84968;-91
2021/03/30 00:29:18;;;;;;;6.20;3.72;;;14.70;66.30;14.60;100916.00;;;;340125;28;88343;-93
2021/03/30 00:29:29;;;;;;;6.75;3.88;;;14.70;66.40;14.60;100915.00;;;;338954;28;83938;-92
2021/03/30 00:29:46;;;;;;;5.28;3.42;;;14.70;66.20;14.80;100915.00;;;;338632;28;91622;-93
2021/03/30 00:29:57;;;;;;;8.00;3.60;;;14.70;66.10;14.70;100907.00;;;;340284;28;83612;-92
2021/03/30 00:30:10;;;;;;;8.27;3.90;;;14.70;66.30;14.60;100914.00;;;;338730;28;91773;-92
2021/03/30 00:30:22;;;;;;;7.50;3.97;;;14.70;66.50;14.50;100913.00;;;;338833;28;85350;-92
2021/03/30 00:30:33;;;;;;;8.35;4.30;;;14.70;66.80;14.40;100911.00;;;;338761;28;88625;-93
2021/03/30 00:30:45;;;;;;;8.68;4.00;;;14.70;66.90;14.30;100916.00;;;;336922;28;83966;-92
2021/03/30 00:30:57;;;;;;;6.47;3.50;;;14.60;67.00;14.40;100914.00;;;;338425;28;93503;-92
2021/03/30 00:31:08;;;;;;;6.47;3.63;;;14.60;66.80;14.30;100912.00;;;;339000;28;82508;-91
2021/03/30 00:31:19;;;;;;;6.15;3.70;;;14.60;66.80;14.30;100909.00;;;;338672;28;91803;-92
2021/03/30 00:31:31;;;;;;;5.35;3.08;;;14.60;66.70;14.30;100913.00;;;;341633;28;82494;-92
2021/03/30 00:31:42;;;;;;;4.93;2.90;;;14.60;66.70;14.20;100916.00;;;;339532;28;92009;-93
2021/03/30 00:31:54;;;;;;;8.15;3.05;;;14.60;66.90;14.10;100911.00;;;;339019;28;84787;-92
2021/03/30 00:32:06;;;;;;;8.43;3.20;;;14.50;67.10;14.20;100912.00;;;;338750;28;88318;-92
2021/03/30 00:32:17;;;;;;;7.65;3.45;;;14.50;67.10;14.20;100914.00;;;;336528;28;82401;-93
2021/03/30 00:32:28;;;;;;;7.07;3.92;;;14.50;67.10;14.30;100915.00;;;;339852;28;89502;-92
2021/03/30 00:32:40;;;;;;;6.95;4.05;;;14.50;66.80;14.40;100910.00;;;;338844;28;84227;-93
2021/03/30 00:32:52;;;;;;;6.40;3.80;;;14.50;66.60;14.50;100916.00;;;;339890;28;92881;-92
2021/03/30 00:33:03;;;;;;;4.50;3.45;;;14.50;66.40;14.50;100907.00;;;;338979;28;83879;-92
2021/03/30 00:33:15;;;;;;;5.07;3.58;;;14.50;66.50;14.60;100905.00;;;;337318;28;90612;-92
2021/03/30 00:33:26;;;;;;;5.90;3.55;;;14.50;66.50;14.60;100918.00;;;;340086;28;84106;-91
2021/03/30 00:33:38;;;;;;;6.00;3.55;;;14.50;66.60;14.60;100911.00;;;;339847;28;87915;-91
2021/03/30 00:33:49;;;;;;;6.15;3.88;;;14.50;66.80;14.50;100912.00;;;;337432;28;84209;-93
2021/03/30 00:34:01;;;;;;;6.60;4.28;;;14.50;66.60;14.50;100917.00;;;;337108;28;92483;-92
2021/03/30 00:34:12;;;;;;;6.47;3.90;;;14.50;67.10;14.40;100906.00;;;;336370;28;83341;-92
2021/03/30 00:34:24;;;;;;;6.07;3.85;;;14.50;66.80;14.40;100909.00;;;;338564;28;92461;-92
2021/03/30 00:34:35;;;;;;;6.20;3.60;;;14.50;66.80;14.30;100920.00;;;;337700;28;82712;-93
2021/03/30 00:34:46;;;;;;;6.85;3.45;;;14.50;66.90;14.30;100912.00;;;;339480;28;90629;-93
2021/03/30 00:34:58;;;;;;;6.47;3.47;;;14.50;67.40;14.30;100905.00;;;;344209;28;84895;-93
2021/03/30 00:35:10;;;;;;;6.40;3.88;;;14.50;67.30;14.40;100909.00;;;;341463;28;88224;-92
2021/03/30 00:35:21;;;;;;;7.20;3.97;;;14.40;66.80;14.40;100908.00;;;;338999;28;84526;-93
2021/03/30 00:35:33;;;;;;;7.78;4.07;;;14.40;66.60;14.40;100914.00;;;;338606;28;90167;-92
2021/03/30 00:35:44;;;;;;;9.43;3.95;;;14.40;66.50;14.40;100909.00;;;;340292;28;83505;-93
2021/03/30 00:35:56;;;;;;;8.60;4.03;;;14.50;66.70;14.20;100906.00;;;;339926;28;91889;-91
2021/03/30 00:36:07;;;;;;;7.90;3.78;;;14.40;67.10;14.20;100907.00;;;;341838;28;83139;-92
2021/03/30 00:36:19;;;;;;;5.65;3.55;;;14.40;67.10;14.20;100903.00;;;;342298;28;92578;-92
2021/03/30 00:36:30;;;;;;;5.15;3.30;;;14.40;67.30;14.10;100908.00;;;;342968;28;85209;-92
2021/03/30 00:36:42;;;;;;;4.82;3.22;;;14.40;67.30;14.10;100910.00;;;;340326;28;93434;-93
2021/03/30 00:36:53;;;;;;;5.30;3.30;;;14.40;67.50;14.20;100911.00;;;;340266;28;83546;-92
2021/03/30 00:37:05;;;;;;;6.38;3.55;;;14.40;67.60;14.10;100905.00;;;;341231;28;92218;-92
2021/03/30 00:37:16;;;;;;;7.30;4.00;;;14.40;67.70;14.20;100906.00;;;;340108;28;83412;-92
2021/03/30 00:37:27;;;;;;;8.57;4.22;;;14.40;67.30;14.30;100907.00;;;;341146;28;91996;-91
2021/03/30 00:37:39;;;;;;;7.13;4.25;;;14.40;67.00;14.30;100904.00;;;;341606;28;84560;-92
2021/03/30 00:37:50;;;;;;;7.10;4.05;;;14.40;67.10;14.30;100909.00;;;;338686;28;90624;-92
2021/03/30 00:38:02;;;;;;;5.72;3.55;;;14.40;67.20;14.30;100909.00;;;;340417;28;83437;-92
2021/03/30 00:38:13;;;;;;;6.60;3.42;;;14.40;67.10;14.40;100910.00;;;;337253;28;91171;-93
2021/03/30 00:38:25;;;;;;;7.50;3.60;;;14.40;67.00;14.40;100902.00;;;;340168;28;84426;-91
2021/03/30 00:38:36;;;;;;;7.53;3.45;;;14.40;67.30;14.40;100908.00;;;;337129;28;92886;-91
2021/03/30 00:38:48;;;;;;;6.10;3.35;;;14.40;67.20;14.20;100912.00;;;;340406;28;83347;-92
2021/03/30 00:38:59;;;;;;;5.35;3.42;;;14.40;67.70;14.20;100908.00;;;;337258;28;91683;-92
2021/03/30 00:39:11;;;;;;;6.35;3.78;;;14.30;67.80;14.10;100908.00;;;;340317;28;84592;-92
2021/03/30 00:39:22;;;;;;;6.35;3.88;;;14.30;67.80;14.10;100905.00;;;;338701;28;90375;-92
2021/03/30 00:39:33;;;;;;;7.72;3.90;;;14.30;67.80;14.00;100909.00;;;;338863;28;83534;-93
2021/03/30 00:39:45;;;;;;;6.85;3.75;;;14.30;67.80;14.10;100913.00;;;;337916;28;89783;-91
2021/03/30 00:39:56;;;;;;;6.40;3.33;;;14.30;68.40;14.20;100911.00;;;;339687;28;83691;-91
2021/03/30 00:40:10;;;;;;;4.63;3.00;;;14.30;67.60;14.40;100919.00;;;;337395;28;89558;-91
2021/03/30 00:40:22;;;;;;;6.97;3.10;;;14.30;67.40;14.40;100901.00;;;;337384;28;83719;-91
2021/03/30 00:40:33;;;;;;;10.05;3.28;;;14.30;67.40;14.30;100916.00;;;;337246;28;91905;-92
2021/03/30 00:40:45;;;;;;;9.27;3.33;;;14.30;67.40;14.30;100904.00;;;;340842;28;85398;-92
2021/03/30 00:40:58;;;;;;;6.75;3.38;;;14.30;67.60;14.30;100902.00;;;;338598;28;91200;-92
2021/03/30 00:41:10;;;;;;;5.55;3.33;;;14.30;67.60;14.30;100905.00;;;;339100;28;82376;-92
2021/03/30 00:41:21;;;;;;;6.82;3.35;;;14.30;67.40;14.30;100906.00;;;;338712;28;89086;-92
2021/03/30 00:41:42;;;;;;;6.32;3.30;;;14.30;67.20;14.30;100909.00;;;;341654;28;82357;-92
2021/03/30 00:41:55;;;;;;;4.85;3.60;;;14.30;67.30;14.30;100911.00;;;;336160;28;89642;-92
2021/03/30 00:42:07;;;;;;;4.75;3.60;;;14.30;67.70;14.40;100911.00;;;;340401;28;83409;-92
2021/03/30 00:42:21;;;;;;;4.70;3.28;;;14.30;67.50;14.40;100915.00;;;;338435;28;92489;-92
2021/03/30 00:42:32;;;;;;;5.57;3.47;;;14.30;67.50;14.40;100909.00;;;;341825;28;83197;-93
2021/03/30 00:42:44;;;;;;;5.95;3.40;;;14.30;67.50;14.40;100910.00;;;;337329;28;91634;-92
2021/03/30 00:42:56;;;;;;;6.30;3.38;;;14.30;67.50;14.30;100910.00;;;;340156;28;83764;-92
2021/03/30 00:43:07;;;;;;;7.03;3.20;;;14.30;67.80;14.30;100910.00;;;;338733;28;92063;-93
2021/03/30 00:43:19;;;;;;;6.50;3.28;;;14.30;67.80;14.30;100914.00;;;;342262;28;83558;-93
2021/03/30 00:43:30;;;;;;;4.90;3.25;;;14.30;67.60;14.20;100901.00;;;;340345;28;91321;-91
2021/03/30 00:43:42;;;;;;;5.82;3.38;;;14.30;67.80;14.20;100902.00;;;;340838;28;83500;-91
2021/03/30 00:43:53;;;;;;;6.32;3.28;;;14.30;68.20;14.20;100908.00;;;;337489;28;90590;-93
2021/03/30 00:44:12;;;;;;;6.90;3.28;;;14.30;68.10;14.10;100909.00;;;;340779;28;84423;-92
2021/03/30 00:44:23;;;;;;;6.90;3.65;;;14.20;67.90;14.20;100912.00;;;;340384;28;91121;-92
2021/03/30 00:44:35;;;;;;;6.22;3.85;;;14.20;67.90;14.20;100907.00;;;;340811;28;84510;-92
2021/03/30 00:44:48;;;;;;;6.10;3.85;;;14.20;67.70;14.20;100910.00;;;;341807;28;93400;-92
2021/03/30 00:44:59;;;;;;;5.85;3.58;;;14.20;67.60;14.20;100914.00;;;;342211;28;84080;-93
2021/03/30 00:45:12;;;;;;;4.50;3.20;;;14.20;67.50;14.20;100913.00;;;;340501;28;90773;-92
2021/03/30 00:45:23;;;;;;;5.63;3.17;;;14.20;67.50;14.20;100914.00;;;;340695;28;83543;-91
2021/03/30 00:45:35;;;;;;;7.72;3.75;;;14.20;68.00;14.20;100907.00;;;;338977;28;92394;-92
2021/03/30 00:45:46;;;;;;;7.43;3.58;;;14.20;67.80;14.20;100902.00;;;;338208;28;84320;-92
2021/03/30 00:45:58;;;;;;;6.43;3.45;;;14.20;67.60;14.20;100915.00;;;;339695;28;88349;-92
2021/03/30 00:46:14;;;;;;;4.68;2.97;;;14.20;67.60;14.10;100908.00;;;;338251;28;84792;-91
2021/03/30 00:46:26;;;;;;;4.55;3.10;;;14.20;67.80;14.10;100906.00;;;;343170;28;91780;-91
2021/03/30 00:46:39;;;;;;;4.85;3.47;;;14.20;67.80;14.20;100905.00;;;;343561;28;85149;-92
2021/03/30 00:46:51;;;;;;;5.68;3.65;;;14.20;67.60;14.30;100902.00;;;;335201;29;90105;-92
2021/03/30 00:47:02;;;;;;;5.93;3.72;;;14.20;67.50;14.40;100918.00;;;;335148;28;83737;-91
2021/03/30 00:47:17;;;;;;;5.70;3.60;;;14.20;67.50;14.30;100916.00;;;;338995;28;91306;-92
2021/03/30 00:47:29;;;;;;;5.10;3.58;;;14.20;67.70;14.20;100911.00;;;;339292;28;84067;-91
2021/03/30 00:47:44;;;;;;;4.75;3.28;;;14.20;67.80;14.20;100908.00;;;;338987;28;90625;-92
2021/03/30 00:47:56;;;;;;;5.20;3.33;;;14.20;67.80;14.30;100908.00;;;;338931;28;83732;-93
2021/03/30 00:48:08;;;;;;;4.93;3.20;;;14.30;67.60;14.30;100910.00;;;;339997;28;92089;-92
2021/03/30 00:48:27;;;;;;;4.72;2.97;;;14.20;67.60;14.40;100910.00;;;;339072;28;82744;-92
2021/03/30 00:48:39;;;;;;;6.30;3.42;;;14.20;68.20;14.20;100904.00;;;;337423;28;88842;-92
2021/03/30 00:48:51;;;;;;;7.03;3.85;;;14.20;67.70;14.20;100907.00;;;;340033;28;84041;-92
2021/03/30 00:49:02;;;;;;;6.32;3.63;;;14.20;67.90;14.20;100908.00;;;;339828;28;92537;-92
2021/03/30 00:49:14;;;;;;;5.82;3.08;;;14.20;67.80;14.10;100907.00;;;;339605;28;85093;-93
2021/03/30 00:49:26;;;;;;;5.40;2.65;;;14.20;67.90;14.00;100905.00;;;;341260;28;90988;-93
2021/03/30 00:49:37;;;;;;;6.13;3.22;;;14.20;68.30;14.00;100905.00;;;;340138;28;84275;-92
2021/03/30 00:49:49;;;;;;;6.82;3.53;;;14.20;68.50;14.00;100909.00;;;;338832;28;90891;-93
2021/03/30 00:50:00;;;;;;;6.72;3.72;;;14.20;68.30;14.10;100905.00;;;;337647;28;84227;-92
2021/03/30 00:50:17;;;;;;;5.60;3.22;;;14.20;67.90;14.10;100910.00;;;;339994;28;91044;-93
2021/03/30 00:50:32;;;;;;;7.03;3.55;;;14.20;67.80;14.10;100905.00;;;;338947;28;84551;-90
2021/03/30 00:50:43;;;;;;;7.15;3.72;;;14.20;68.10;14.10;100904.00;;;;341284;28;88026;-92
2021/03/30 00:50:55;;;;;;;6.45;3.42;;;14.20;68.00;14.20;100903.00;;;;341669;28;85087;-92
2021/03/30 00:51:08;;;;;;;5.35;3.08;;;14.20;67.90;14.20;100901.00;;;;342483;28;93699;-91
2021/03/30 00:51:19;;;;;;;5.35;2.72;;;14.20;67.80;14.10;100907.00;;;;339169;28;83384;-93
2021/03/30 00:51:31;;;;;;;5.28;2.90;;;14.20;68.40;14.10;100905.00;;;;339995;28;88283;-92
2021/03/30 00:51:43;;;;;;;5.80;3.28;;;14.20;68.30;14.20;100902.00;;;;337721;28;83543;-92
2021/03/30 00:51:54;;;;;;;5.43;3.53;;;14.10;68.00;14.40;100907.00;;;;337628;28;91871;-92
2021/03/30 00:52:06;;;;;;;4.68;3.33;;;14.20;67.90;14.30;100904.00;;;;337691;28;83776;-91
2021/03/30 00:52:18;;;;;;;4.93;3.42;;;14.20;68.00;14.30;100906.00;;;;339818;28;90857;-90
2021/03/30 00:52:29;;;;;;;5.13;3.33;;;14.20;68.00;14.10;100904.00;;;;337866;28;82366;-91
2021/03/30 00:52:42;;;;;;;5.30;3.33;;;14.20;68.30;14.00;100907.00;;;;339844;28;91357;-92
2021/03/30 00:52:54;;;;;;;5.57;3.30;;;14.20;68.40;14.00;100910.00;;;;338954;28;82480;-91
2021/03/30 00:53:05;;;;;;;5.07;3.13;;;14.20;68.40;14.10;100909.00;;;;338592;28;91416;-91